sensor_id;sensor_type;location;lat;lon;timestamp;pressure;altitude;pressure_sealevel;temperature
45850;BMP180;10739;52.198;20.908;2022-10-16T00:01:29;100424.00;;;17.30
45850;BMP180;10739;52.198;20.908;2022-10-16T00:03:59;100422.00;;;17.70
45850;BMP180;10739;52.198;20.908;2022-10-16T00:06:27;100430.00;;;17.20
45850;BMP180;10739;52.198;20.908;2022-10-16T00:08:53;100423.00;;;17.10
45850;BMP180;10739;52.198;20.908;2022-10-16T00:11:32;100422.00;;;17.70
45850;BMP180;10739;52.198;20.908;2022-10-16T00:14:12;100423.00;;;17.60
45850;BMP180;10739;52.198;20.908;2022-10-16T00:16:40;100416.00;;;17.60
45850;BMP180;10739;52.198;20.908;2022-10-16T00:19:07;100421.00;;;17.50
45850;BMP180;10739;52.198;20.908;2022-10-16T00:21:34;100417.00;;;18.20
45850;BMP180;10739;52.198;20.908;2022-10-16T00:24:08;100415.00;;;18.20
45850;BMP180;10739;52.198;20.908;2022-10-16T00:26:36;100418.00;;;18.50
45850;BMP180;10739;52.198;20.908;2022-10-16T00:29:04;100425.00;;;18.40
45850;BMP180;10739;52.198;20.908;2022-10-16T00:31:31;100425.00;;;18.40
45850;BMP180;10739;52.198;20.908;2022-10-16T00:33:57;100426.00;;;18.50
45850;BMP180;10739;52.198;20.908;2022-10-16T00:36:25;100428.00;;;18.30
45850;BMP180;10739;52.198;20.908;2022-10-16T00:38:54;100433.00;;;17.80
45850;BMP180;10739;52.198;20.908;2022-10-16T00:41:23;100438.00;;;18.00
45850;BMP180;10739;52.198;20.908;2022-10-16T00:43:56;100441.00;;;17.90
45850;BMP180;10739;52.198;20.908;2022-10-16T00:46:28;100439.00;;;17.80
45850;BMP180;10739;52.198;20.908;2022-10-16T00:51:39;100450.00;;;17.50
45850;BMP180;10739;52.198;20.908;2022-10-16T00:54:33;100443.00;;;17.80
45850;BMP180;10739;52.198;20.908;2022-10-16T00:57:05;100456.00;;;17.90
45850;BMP180;10739;52.198;20.908;2022-10-16T00:59:39;100444.00;;;18.00
45850;BMP180;10739;52.198;20.908;2022-10-16T01:02:09;100436.00;;;18.10
45850;BMP180;10739;52.198;20.908;2022-10-16T01:04:50;100434.00;;;18.40
45850;BMP180;10739;52.198;20.908;2022-10-16T01:12:50;100438.00;;;17.80
45850;BMP180;10739;52.198;20.908;2022-10-16T01:18:33;100449.00;;;18.10
45850;BMP180;10739;52.198;20.908;2022-10-16T01:21:10;100444.00;;;18.10
45850;BMP180;10739;52.198;20.908;2022-10-16T01:24:19;100449.00;;;18.00
45850;BMP180;10739;52.198;20.908;2022-10-16T01:27:20;100455.00;;;17.30
45850;BMP180;10739;52.198;20.908;2022-10-16T01:30:10;100469.00;;;17.60
45850;BMP180;10739;52.198;20.908;2022-10-16T01:33:16;100464.00;;;17.80
45850;BMP180;10739;52.198;20.908;2022-10-16T01:35:54;100470.00;;;17.90
45850;BMP180;10739;52.198;20.908;2022-10-16T01:38:36;100476.00;;;17.80
45850;BMP180;10739;52.198;20.908;2022-10-16T01:41:17;100480.00;;;18.10
45850;BMP180;10739;52.198;20.908;2022-10-16T01:44:07;100462.00;;;17.80
45850;BMP180;10739;52.198;20.908;2022-10-16T01:46:39;100469.00;;;17.50
45850;BMP180;10739;52.198;20.908;2022-10-16T01:49:09;100449.00;;;17.70
45850;BMP180;10739;52.198;20.908;2022-10-16T01:51:37;100461.00;;;17.70
45850;BMP180;10739;52.198;20.908;2022-10-16T01:54:07;100461.00;;;17.30
45850;BMP180;10739;52.198;20.908;2022-10-16T01:56:35;100461.00;;;16.80
45850;BMP180;10739;52.198;20.908;2022-10-16T01:59:09;100462.00;;;17.30
45850;BMP180;10739;52.198;20.908;2022-10-16T02:01:42;100457.00;;;17.30
45850;BMP180;10739;52.198;20.908;2022-10-16T02:06:47;100464.00;;;17.30
45850;BMP180;10739;52.198;20.908;2022-10-16T02:09:13;100466.00;;;17.20
45850;BMP180;10739;52.198;20.908;2022-10-16T02:11:44;100461.00;;;17.10
45850;BMP180;10739;52.198;20.908;2022-10-16T02:14:10;100462.00;;;17.50
45850;BMP180;10739;52.198;20.908;2022-10-16T02:16:43;100461.00;;;17.20
45850;BMP180;10739;52.198;20.908;2022-10-16T02:19:12;100457.00;;;17.50
45850;BMP180;10739;52.198;20.908;2022-10-16T02:21:58;100464.00;;;17.50
45850;BMP180;10739;52.198;20.908;2022-10-16T02:24:56;100457.00;;;17.40
45850;BMP180;10739;52.198;20.908;2022-10-16T02:28:08;100454.00;;;17.60
45850;BMP180;10739;52.198;20.908;2022-10-16T02:30:47;100447.00;;;17.30
45850;BMP180;10739;52.198;20.908;2022-10-16T02:33:16;100455.00;;;17.40
45850;BMP180;10739;52.198;20.908;2022-10-16T02:35:46;100448.00;;;17.10
45850;BMP180;10739;52.198;20.908;2022-10-16T02:38:16;100458.00;;;17.20
45850;BMP180;10739;52.198;20.908;2022-10-16T02:40:43;100461.00;;;17.30
45850;BMP180;10739;52.198;20.908;2022-10-16T02:43:10;100461.00;;;17.00
45850;BMP180;10739;52.198;20.908;2022-10-16T02:45:37;100467.00;;;17.10
45850;BMP180;10739;52.198;20.908;2022-10-16T02:48:04;100465.00;;;17.40
45850;BMP180;10739;52.198;20.908;2022-10-16T02:50:30;100466.00;;;17.40
45850;BMP180;10739;52.198;20.908;2022-10-16T02:52:56;100470.00;;;17.40
45850;BMP180;10739;52.198;20.908;2022-10-16T02:55:23;100466.00;;;17.40
45850;BMP180;10739;52.198;20.908;2022-10-16T02:57:49;100471.00;;;17.30
45850;BMP180;10739;52.198;20.908;2022-10-16T03:00:17;100466.00;;;17.20
45850;BMP180;10739;52.198;20.908;2022-10-16T03:02:44;100477.00;;;17.00
45850;BMP180;10739;52.198;20.908;2022-10-16T03:05:10;100479.00;;;17.10
45850;BMP180;10739;52.198;20.908;2022-10-16T03:07:37;100483.00;;;17.20
45850;BMP180;10739;52.198;20.908;2022-10-16T03:10:03;100480.00;;;17.10
45850;BMP180;10739;52.198;20.908;2022-10-16T03:12:30;100477.00;;;17.10
45850;BMP180;10739;52.198;20.908;2022-10-16T03:14:56;100488.00;;;17.10
45850;BMP180;10739;52.198;20.908;2022-10-16T03:17:23;100483.00;;;17.00
45850;BMP180;10739;52.198;20.908;2022-10-16T03:19:50;100482.00;;;17.20
45850;BMP180;10739;52.198;20.908;2022-10-16T03:22:16;100486.00;;;17.20
45850;BMP180;10739;52.198;20.908;2022-10-16T03:24:42;100490.00;;;17.10
45850;BMP180;10739;52.198;20.908;2022-10-16T03:27:08;100495.00;;;17.60
45850;BMP180;10739;52.198;20.908;2022-10-16T03:29:35;100500.00;;;17.50
45850;BMP180;10739;52.198;20.908;2022-10-16T03:32:01;100496.00;;;17.00
45850;BMP180;10739;52.198;20.908;2022-10-16T03:34:27;100503.00;;;17.00
45850;BMP180;10739;52.198;20.908;2022-10-16T03:36:54;100501.00;;;17.20
45850;BMP180;10739;52.198;20.908;2022-10-16T03:39:20;100501.00;;;17.20
45850;BMP180;10739;52.198;20.908;2022-10-16T03:41:46;100498.00;;;17.10
45850;BMP180;10739;52.198;20.908;2022-10-16T03:44:13;100502.00;;;17.10
45850;BMP180;10739;52.198;20.908;2022-10-16T03:46:39;100511.00;;;17.00
45850;BMP180;10739;52.198;20.908;2022-10-16T03:49:06;100504.00;;;17.30
45850;BMP180;10739;52.198;20.908;2022-10-16T03:51:32;100508.00;;;17.10
45850;BMP180;10739;52.198;20.908;2022-10-16T03:53:58;100504.00;;;17.00
45850;BMP180;10739;52.198;20.908;2022-10-16T03:56:25;100503.00;;;16.80
45850;BMP180;10739;52.198;20.908;2022-10-16T03:58:51;100501.00;;;17.10
45850;BMP180;10739;52.198;20.908;2022-10-16T04:01:17;100503.00;;;17.30
45850;BMP180;10739;52.198;20.908;2022-10-16T04:03:43;100506.00;;;17.00
45850;BMP180;10739;52.198;20.908;2022-10-16T04:06:09;100506.00;;;16.70
45850;BMP180;10739;52.198;20.908;2022-10-16T04:08:36;100516.00;;;16.80
45850;BMP180;10739;52.198;20.908;2022-10-16T04:11:03;100510.00;;;16.80
45850;BMP180;10739;52.198;20.908;2022-10-16T04:13:29;100511.00;;;16.80
45850;BMP180;10739;52.198;20.908;2022-10-16T04:15:56;100511.00;;;16.80
45850;BMP180;10739;52.198;20.908;2022-10-16T04:18:22;100513.00;;;16.60
45850;BMP180;10739;52.198;20.908;2022-10-16T04:20:48;100518.00;;;16.40
45850;BMP180;10739;52.198;20.908;2022-10-16T04:23:15;100515.00;;;16.50
45850;BMP180;10739;52.198;20.908;2022-10-16T04:25:41;100524.00;;;16.50
45850;BMP180;10739;52.198;20.908;2022-10-16T04:28:07;100528.00;;;16.40
45850;BMP180;10739;52.198;20.908;2022-10-16T04:30:33;100536.00;;;16.70
45850;BMP180;10739;52.198;20.908;2022-10-16T04:33:00;100520.00;;;16.60
45850;BMP180;10739;52.198;20.908;2022-10-16T04:35:26;100532.00;;;16.80
45850;BMP180;10739;52.198;20.908;2022-10-16T04:37:51;100524.00;;;16.70
45850;BMP180;10739;52.198;20.908;2022-10-16T04:40:18;100526.00;;;16.70
45850;BMP180;10739;52.198;20.908;2022-10-16T04:42:44;100521.00;;;16.60
45850;BMP180;10739;52.198;20.908;2022-10-16T04:45:10;100534.00;;;16.60
45850;BMP180;10739;52.198;20.908;2022-10-16T04:47:36;100518.00;;;16.60
45850;BMP180;10739;52.198;20.908;2022-10-16T04:50:03;100533.00;;;16.30
45850;BMP180;10739;52.198;20.908;2022-10-16T04:52:29;100539.00;;;16.30
45850;BMP180;10739;52.198;20.908;2022-10-16T04:54:58;100536.00;;;16.40
45850;BMP180;10739;52.198;20.908;2022-10-16T04:57:30;100540.00;;;16.40
45850;BMP180;10739;52.198;20.908;2022-10-16T04:59:57;100530.00;;;16.30
45850;BMP180;10739;52.198;20.908;2022-10-16T05:02:23;100536.00;;;16.30
45850;BMP180;10739;52.198;20.908;2022-10-16T05:04:49;100542.00;;;16.30
45850;BMP180;10739;52.198;20.908;2022-10-16T05:07:15;100546.00;;;16.20
45850;BMP180;10739;52.198;20.908;2022-10-16T05:09:41;100551.00;;;16.40
45850;BMP180;10739;52.198;20.908;2022-10-16T05:12:07;100551.00;;;16.40
45850;BMP180;10739;52.198;20.908;2022-10-16T05:14:33;100563.00;;;16.40
45850;BMP180;10739;52.198;20.908;2022-10-16T05:17:00;100561.00;;;16.30
45850;BMP180;10739;52.198;20.908;2022-10-16T05:19:26;100560.00;;;16.50
45850;BMP180;10739;52.198;20.908;2022-10-16T05:21:52;100564.00;;;16.30
45850;BMP180;10739;52.198;20.908;2022-10-16T05:24:19;100558.00;;;16.30
45850;BMP180;10739;52.198;20.908;2022-10-16T05:26:45;100560.00;;;16.40
45850;BMP180;10739;52.198;20.908;2022-10-16T05:29:11;100552.00;;;16.10
45850;BMP180;10739;52.198;20.908;2022-10-16T05:31:37;100544.00;;;16.10
45850;BMP180;10739;52.198;20.908;2022-10-16T05:34:03;100559.00;;;16.10
45850;BMP180;10739;52.198;20.908;2022-10-16T05:36:29;100559.00;;;16.00
45850;BMP180;10739;52.198;20.908;2022-10-16T05:38:56;100560.00;;;15.80
45850;BMP180;10739;52.198;20.908;2022-10-16T05:41:22;100554.00;;;15.70
45850;BMP180;10739;52.198;20.908;2022-10-16T05:43:51;100564.00;;;15.90
45850;BMP180;10739;52.198;20.908;2022-10-16T05:46:18;100567.00;;;15.80
45850;BMP180;10739;52.198;20.908;2022-10-16T05:48:44;100557.00;;;15.80
45850;BMP180;10739;52.198;20.908;2022-10-16T05:51:14;100567.00;;;15.90
45850;BMP180;10739;52.198;20.908;2022-10-16T05:53:41;100574.00;;;15.90
45850;BMP180;10739;52.198;20.908;2022-10-16T05:56:10;100575.00;;;15.80
45850;BMP180;10739;52.198;20.908;2022-10-16T05:58:38;100581.00;;;15.90
45850;BMP180;10739;52.198;20.908;2022-10-16T06:01:32;100582.00;;;16.00
45850;BMP180;10739;52.198;20.908;2022-10-16T06:03:59;100589.00;;;15.90
45850;BMP180;10739;52.198;20.908;2022-10-16T06:06:27;100587.00;;;15.70
45850;BMP180;10739;52.198;20.908;2022-10-16T06:08:55;100581.00;;;16.10
45850;BMP180;10739;52.198;20.908;2022-10-16T06:11:26;100592.00;;;15.90
45850;BMP180;10739;52.198;20.908;2022-10-16T06:13:57;100592.00;;;15.80
45850;BMP180;10739;52.198;20.908;2022-10-16T06:16:25;100596.00;;;15.80
45850;BMP180;10739;52.198;20.908;2022-10-16T06:18:55;100594.00;;;15.90
45850;BMP180;10739;52.198;20.908;2022-10-16T06:21:24;100603.00;;;16.20
45850;BMP180;10739;52.198;20.908;2022-10-16T06:23:51;100601.00;;;16.20
45850;BMP180;10739;52.198;20.908;2022-10-16T06:26:21;100596.00;;;16.20
45850;BMP180;10739;52.198;20.908;2022-10-16T06:28:49;100599.00;;;16.50
45850;BMP180;10739;52.198;20.908;2022-10-16T06:31:17;100601.00;;;16.10
45850;BMP180;10739;52.198;20.908;2022-10-16T06:33:43;100596.00;;;16.30
45850;BMP180;10739;52.198;20.908;2022-10-16T06:36:15;100604.00;;;16.60
45850;BMP180;10739;52.198;20.908;2022-10-16T06:38:43;100605.00;;;16.60
45850;BMP180;10739;52.198;20.908;2022-10-16T06:41:16;100613.00;;;16.70
45850;BMP180;10739;52.198;20.908;2022-10-16T06:43:47;100612.00;;;16.90
45850;BMP180;10739;52.198;20.908;2022-10-16T06:46:17;100620.00;;;17.20
45850;BMP180;10739;52.198;20.908;2022-10-16T06:48:44;100619.00;;;17.30
45850;BMP180;10739;52.198;20.908;2022-10-16T06:51:19;100619.00;;;17.30
45850;BMP180;10739;52.198;20.908;2022-10-16T06:53:52;100612.00;;;17.20
45850;BMP180;10739;52.198;20.908;2022-10-16T06:56:22;100618.00;;;17.30
45850;BMP180;10739;52.198;20.908;2022-10-16T06:58:49;100620.00;;;17.50
45850;BMP180;10739;52.198;20.908;2022-10-16T07:01:17;100626.00;;;17.70
45850;BMP180;10739;52.198;20.908;2022-10-16T07:03:45;100628.00;;;17.70
45850;BMP180;10739;52.198;20.908;2022-10-16T07:06:18;100636.00;;;17.80
45850;BMP180;10739;52.198;20.908;2022-10-16T07:08:45;100636.00;;;17.80
45850;BMP180;10739;52.198;20.908;2022-10-16T07:11:16;100630.00;;;17.80
45850;BMP180;10739;52.198;20.908;2022-10-16T07:13:44;100633.00;;;17.80
45850;BMP180;10739;52.198;20.908;2022-10-16T07:16:14;100638.00;;;17.80
45850;BMP180;10739;52.198;20.908;2022-10-16T07:18:42;100639.00;;;17.70
45850;BMP180;10739;52.198;20.908;2022-10-16T07:21:14;100639.00;;;17.90
45850;BMP180;10739;52.198;20.908;2022-10-16T07:23:41;100648.00;;;17.60
45850;BMP180;10739;52.198;20.908;2022-10-16T07:26:09;100639.00;;;17.70
45850;BMP180;10739;52.198;20.908;2022-10-16T07:28:37;100636.00;;;17.80
45850;BMP180;10739;52.198;20.908;2022-10-16T07:31:07;100619.00;;;17.60
45850;BMP180;10739;52.198;20.908;2022-10-16T07:33:37;100613.00;;;17.70
45850;BMP180;10739;52.198;20.908;2022-10-16T07:36:05;100605.00;;;18.30
45850;BMP180;10739;52.198;20.908;2022-10-16T07:38:31;100606.00;;;18.60
45850;BMP180;10739;52.198;20.908;2022-10-16T07:41:07;100612.00;;;19.80
45850;BMP180;10739;52.198;20.908;2022-10-16T07:43:34;100638.00;;;20.10
45850;BMP180;10739;52.198;20.908;2022-10-16T07:46:01;100645.00;;;19.80
45850;BMP180;10739;52.198;20.908;2022-10-16T07:48:30;100640.00;;;20.50
45850;BMP180;10739;52.198;20.908;2022-10-16T07:51:05;100638.00;;;20.90
45850;BMP180;10739;52.198;20.908;2022-10-16T07:53:32;100627.00;;;21.00
45850;BMP180;10739;52.198;20.908;2022-10-16T07:56:05;100629.00;;;21.70
45850;BMP180;10739;52.198;20.908;2022-10-16T07:58:32;100617.00;;;22.10
45850;BMP180;10739;52.198;20.908;2022-10-16T08:01:07;100630.00;;;23.00
45850;BMP180;10739;52.198;20.908;2022-10-16T08:03:34;100641.00;;;22.40
45850;BMP180;10739;52.198;20.908;2022-10-16T08:06:02;100641.00;;;23.50
45850;BMP180;10739;52.198;20.908;2022-10-16T08:08:29;100638.00;;;23.60
45850;BMP180;10739;52.198;20.908;2022-10-16T08:10:56;100654.00;;;23.70
45850;BMP180;10739;52.198;20.908;2022-10-16T08:13:22;100651.00;;;23.80
45850;BMP180;10739;52.198;20.908;2022-10-16T08:15:48;100656.00;;;23.30
45850;BMP180;10739;52.198;20.908;2022-10-16T08:18:16;100652.00;;;23.00
45850;BMP180;10739;52.198;20.908;2022-10-16T08:20:42;100652.00;;;23.60
45850;BMP180;10739;52.198;20.908;2022-10-16T08:23:12;100651.00;;;23.10
45850;BMP180;10739;52.198;20.908;2022-10-16T08:25:41;100656.00;;;23.10
45850;BMP180;10739;52.198;20.908;2022-10-16T08:28:10;100667.00;;;23.30
45850;BMP180;10739;52.198;20.908;2022-10-16T08:30:37;100667.00;;;21.50
45850;BMP180;10739;52.198;20.908;2022-10-16T08:33:03;100676.00;;;20.80
45850;BMP180;10739;52.198;20.908;2022-10-16T08:35:29;100677.00;;;20.90
45850;BMP180;10739;52.198;20.908;2022-10-16T08:37:56;100677.00;;;20.40
45850;BMP180;10739;52.198;20.908;2022-10-16T08:40:28;100685.00;;;20.60
45850;BMP180;10739;52.198;20.908;2022-10-16T08:48:52;100686.00;;;20.70
45850;BMP180;10739;52.198;20.908;2022-10-16T08:51:26;100686.00;;;20.70
45850;BMP180;10739;52.198;20.908;2022-10-16T08:54:28;100683.00;;;20.80
45850;BMP180;10739;52.198;20.908;2022-10-16T08:57:04;100688.00;;;21.70
45850;BMP180;10739;52.198;20.908;2022-10-16T08:59:33;100689.00;;;22.00
45850;BMP180;10739;52.198;20.908;2022-10-16T09:01:59;100682.00;;;22.00
45850;BMP180;10739;52.198;20.908;2022-10-16T09:05:16;100688.00;;;22.10
45850;BMP180;10739;52.198;20.908;2022-10-16T09:16:44;100686.00;;;20.60
45850;BMP180;10739;52.198;20.908;2022-10-16T09:19:29;100686.00;;;21.20
45850;BMP180;10739;52.198;20.908;2022-10-16T09:22:04;100676.00;;;22.60
45850;BMP180;10739;52.198;20.908;2022-10-16T09:24:37;100672.00;;;21.60
45850;BMP180;10739;52.198;20.908;2022-10-16T09:27:03;100677.00;;;22.40
45850;BMP180;10739;52.198;20.908;2022-10-16T09:29:29;100679.00;;;21.50
45850;BMP180;10739;52.198;20.908;2022-10-16T09:32:27;100677.00;;;22.40
45850;BMP180;10739;52.198;20.908;2022-10-16T09:34:55;100674.00;;;21.20
45850;BMP180;10739;52.198;20.908;2022-10-16T09:37:24;100682.00;;;21.20
45850;BMP180;10739;52.198;20.908;2022-10-16T09:39:53;100679.00;;;21.60
45850;BMP180;10739;52.198;20.908;2022-10-16T09:42:34;100679.00;;;21.00
45850;BMP180;10739;52.198;20.908;2022-10-16T09:45:01;100680.00;;;20.80
45850;BMP180;10739;52.198;20.908;2022-10-16T09:47:30;100681.00;;;21.10
45850;BMP180;10739;52.198;20.908;2022-10-16T09:50:20;100681.00;;;21.30
45850;BMP180;10739;52.198;20.908;2022-10-16T09:52:47;100680.00;;;21.10
45850;BMP180;10739;52.198;20.908;2022-10-16T09:55:17;100680.00;;;21.00
45850;BMP180;10739;52.198;20.908;2022-10-16T09:57:54;100684.00;;;20.90
45850;BMP180;10739;52.198;20.908;2022-10-16T10:00:23;100671.00;;;21.50
45850;BMP180;10739;52.198;20.908;2022-10-16T10:02:50;100680.00;;;21.50
45850;BMP180;10739;52.198;20.908;2022-10-16T10:05:28;100680.00;;;22.20
45850;BMP180;10739;52.198;20.908;2022-10-16T10:08:01;100692.00;;;22.00
45850;BMP180;10739;52.198;20.908;2022-10-16T10:10:42;100693.00;;;21.70
45850;BMP180;10739;52.198;20.908;2022-10-16T10:13:24;100699.00;;;21.40
45850;BMP180;10739;52.198;20.908;2022-10-16T10:15:52;100704.00;;;22.10
45850;BMP180;10739;52.198;20.908;2022-10-16T10:18:21;100687.00;;;21.50
45850;BMP180;10739;52.198;20.908;2022-10-16T10:21:00;100686.00;;;21.60
45850;BMP180;10739;52.198;20.908;2022-10-16T10:23:29;100681.00;;;21.40
45850;BMP180;10739;52.198;20.908;2022-10-16T10:26:12;100682.00;;;21.50
45850;BMP180;10739;52.198;20.908;2022-10-16T10:29:17;100679.00;;;22.40
45850;BMP180;10739;52.198;20.908;2022-10-16T10:32:46;100675.00;;;22.60
45850;BMP180;10739;52.198;20.908;2022-10-16T10:38:28;100685.00;;;22.00
45850;BMP180;10739;52.198;20.908;2022-10-16T10:53:59;100669.00;;;21.90
45850;BMP180;10739;52.198;20.908;2022-10-16T10:56:51;100665.00;;;21.60
45850;BMP180;10739;52.198;20.908;2022-10-16T11:05:44;100669.00;;;21.90
45850;BMP180;10739;52.198;20.908;2022-10-16T11:08:19;100671.00;;;21.70
45850;BMP180;10739;52.198;20.908;2022-10-16T11:11:10;100676.00;;;21.70
45850;BMP180;10739;52.198;20.908;2022-10-16T11:13:39;100674.00;;;22.40
45850;BMP180;10739;52.198;20.908;2022-10-16T11:19:15;100663.00;;;21.50
45850;BMP180;10739;52.198;20.908;2022-10-16T11:22:16;100662.00;;;22.00
45850;BMP180;10739;52.198;20.908;2022-10-16T11:25:00;100660.00;;;22.60
45850;BMP180;10739;52.198;20.908;2022-10-16T11:27:59;100655.00;;;23.00
45850;BMP180;10739;52.198;20.908;2022-10-16T11:30:42;100669.00;;;21.90
45850;BMP180;10739;52.198;20.908;2022-10-16T11:33:37;100679.00;;;22.20
45850;BMP180;10739;52.198;20.908;2022-10-16T11:55:40;100655.00;;;23.20
45850;BMP180;10739;52.198;20.908;2022-10-16T11:58:30;100650.00;;;22.40
45850;BMP180;10739;52.198;20.908;2022-10-16T12:09:05;100673.00;;;22.70
45850;BMP180;10739;52.198;20.908;2022-10-16T12:11:38;100666.00;;;23.00
45850;BMP180;10739;52.198;20.908;2022-10-16T12:16:54;100677.00;;;22.40
45850;BMP180;10739;52.198;20.908;2022-10-16T12:19:23;100682.00;;;22.10
45850;BMP180;10739;52.198;20.908;2022-10-16T12:21:52;100695.00;;;22.20
45850;BMP180;10739;52.198;20.908;2022-10-16T12:24:36;100691.00;;;22.20
45850;BMP180;10739;52.198;20.908;2022-10-16T12:27:05;100682.00;;;22.30
45850;BMP180;10739;52.198;20.908;2022-10-16T12:29:41;100678.00;;;22.60
45850;BMP180;10739;52.198;20.908;2022-10-16T12:32:34;100678.00;;;22.30
45850;BMP180;10739;52.198;20.908;2022-10-16T12:35:03;100686.00;;;22.40
45850;BMP180;10739;52.198;20.908;2022-10-16T12:37:37;100687.00;;;22.30
45850;BMP180;10739;52.198;20.908;2022-10-16T12:40:25;100684.00;;;22.60
45850;BMP180;10739;52.198;20.908;2022-10-16T12:42:53;100694.00;;;22.80
45850;BMP180;10739;52.198;20.908;2022-10-16T12:45:33;100698.00;;;22.60
45850;BMP180;10739;52.198;20.908;2022-10-16T12:48:03;100682.00;;;22.40
45850;BMP180;10739;52.198;20.908;2022-10-16T12:50:34;100684.00;;;22.70
45850;BMP180;10739;52.198;20.908;2022-10-16T12:53:04;100696.00;;;22.60
45850;BMP180;10739;52.198;20.908;2022-10-16T12:56:21;100702.00;;;22.10
45850;BMP180;10739;52.198;20.908;2022-10-16T12:59:15;100704.00;;;22.20
45850;BMP180;10739;52.198;20.908;2022-10-16T13:04:29;100698.00;;;22.10
45850;BMP180;10739;52.198;20.908;2022-10-16T13:07:19;100681.00;;;22.60
45850;BMP180;10739;52.198;20.908;2022-10-16T13:15:38;100701.00;;;21.80
45850;BMP180;10739;52.198;20.908;2022-10-16T13:18:49;100698.00;;;22.20
45850;BMP180;10739;52.198;20.908;2022-10-16T13:22:16;100709.00;;;22.20
45850;BMP180;10739;52.198;20.908;2022-10-16T13:27:55;100713.00;;;22.10
45850;BMP180;10739;52.198;20.908;2022-10-16T13:30:13;100721.00;;;21.80
45850;BMP180;10739;52.198;20.908;2022-10-16T13:32:50;100725.00;;;22.10
45850;BMP180;10739;52.198;20.908;2022-10-16T13:35:29;100723.00;;;22.20
45850;BMP180;10739;52.198;20.908;2022-10-16T13:38:18;100722.00;;;22.00
45850;BMP180;10739;52.198;20.908;2022-10-16T13:40:57;100722.00;;;22.00
45850;BMP180;10739;52.198;20.908;2022-10-16T13:43:39;100728.00;;;23.00
45850;BMP180;10739;52.198;20.908;2022-10-16T13:46:19;100728.00;;;22.80
45850;BMP180;10739;52.198;20.908;2022-10-16T13:49:02;100728.00;;;22.50
45850;BMP180;10739;52.198;20.908;2022-10-16T13:51:31;100725.00;;;22.30
45850;BMP180;10739;52.198;20.908;2022-10-16T13:53:58;100727.00;;;22.30
45850;BMP180;10739;52.198;20.908;2022-10-16T13:56:28;100728.00;;;22.60
45850;BMP180;10739;52.198;20.908;2022-10-16T13:59:01;100727.00;;;22.40
45850;BMP180;10739;52.198;20.908;2022-10-16T14:01:44;100721.00;;;22.10
45850;BMP180;10739;52.198;20.908;2022-10-16T14:04:13;100717.00;;;22.00
45850;BMP180;10739;52.198;20.908;2022-10-16T14:06:43;100722.00;;;22.80
45850;BMP180;10739;52.198;20.908;2022-10-16T14:09:26;100720.00;;;22.00
45850;BMP180;10739;52.198;20.908;2022-10-16T14:12:01;100709.00;;;22.00
45850;BMP180;10739;52.198;20.908;2022-10-16T14:14:40;100715.00;;;22.00
45850;BMP180;10739;52.198;20.908;2022-10-16T14:17:26;100722.00;;;22.20
45850;BMP180;10739;52.198;20.908;2022-10-16T14:19:59;100733.00;;;22.00
45850;BMP180;10739;52.198;20.908;2022-10-16T14:22:38;100732.00;;;22.20
45850;BMP180;10739;52.198;20.908;2022-10-16T14:25:23;100735.00;;;22.20
45850;BMP180;10739;52.198;20.908;2022-10-16T14:28:22;100742.00;;;22.30
45850;BMP180;10739;52.198;20.908;2022-10-16T14:30:58;100741.00;;;22.40
45850;BMP180;10739;52.198;20.908;2022-10-16T14:33:33;100735.00;;;22.90
45850;BMP180;10739;52.198;20.908;2022-10-16T14:36:06;100739.00;;;22.60
45850;BMP180;10739;52.198;20.908;2022-10-16T14:38:39;100740.00;;;22.50
45850;BMP180;10739;52.198;20.908;2022-10-16T14:41:07;100744.00;;;22.70
45850;BMP180;10739;52.198;20.908;2022-10-16T14:43:43;100738.00;;;22.70
45850;BMP180;10739;52.198;20.908;2022-10-16T14:46:21;100735.00;;;22.70
45850;BMP180;10739;52.198;20.908;2022-10-16T14:49:04;100745.00;;;22.90
45850;BMP180;10739;52.198;20.908;2022-10-16T14:51:41;100755.00;;;22.50
45850;BMP180;10739;52.198;20.908;2022-10-16T14:54:18;100745.00;;;22.40
45850;BMP180;10739;52.198;20.908;2022-10-16T14:56:55;100738.00;;;23.10
45850;BMP180;10739;52.198;20.908;2022-10-16T14:59:31;100736.00;;;22.50
45850;BMP180;10739;52.198;20.908;2022-10-16T15:01:58;100747.00;;;23.00
45850;BMP180;10739;52.198;20.908;2022-10-16T15:04:24;100745.00;;;23.30
45850;BMP180;10739;52.198;20.908;2022-10-16T15:06:50;100748.00;;;23.50
45850;BMP180;10739;52.198;20.908;2022-10-16T15:09:17;100745.00;;;22.70
45850;BMP180;10739;52.198;20.908;2022-10-16T15:11:43;100753.00;;;22.50
45850;BMP180;10739;52.198;20.908;2022-10-16T15:14:13;100757.00;;;22.40
45850;BMP180;10739;52.198;20.908;2022-10-16T15:16:39;100764.00;;;21.90
45850;BMP180;10739;52.198;20.908;2022-10-16T15:19:05;100770.00;;;22.10
45850;BMP180;10739;52.198;20.908;2022-10-16T15:21:32;100762.00;;;22.20
45850;BMP180;10739;52.198;20.908;2022-10-16T15:23:59;100761.00;;;22.10
45850;BMP180;10739;52.198;20.908;2022-10-16T15:26:28;100763.00;;;21.90
45850;BMP180;10739;52.198;20.908;2022-10-16T15:28:55;100768.00;;;22.00
45850;BMP180;10739;52.198;20.908;2022-10-16T15:31:23;100769.00;;;22.00
45850;BMP180;10739;52.198;20.908;2022-10-16T15:33:51;100766.00;;;22.20
45850;BMP180;10739;52.198;20.908;2022-10-16T15:36:37;100770.00;;;22.40
45850;BMP180;10739;52.198;20.908;2022-10-16T15:39:08;100772.00;;;22.00
45850;BMP180;10739;52.198;20.908;2022-10-16T15:41:36;100768.00;;;22.20
45850;BMP180;10739;52.198;20.908;2022-10-16T15:44:02;100769.00;;;22.10
45850;BMP180;10739;52.198;20.908;2022-10-16T15:46:29;100781.00;;;22.40
45850;BMP180;10739;52.198;20.908;2022-10-16T15:48:58;100782.00;;;22.40
45850;BMP180;10739;52.198;20.908;2022-10-16T15:51:26;100776.00;;;22.60